Grimes, Alabama
Current Conditions -  °F | °C
As of 11:53 AM on Monday 22 Dec 2014 (Local Time) from KDHN Reporting Station
Overcast Overcast  
Wind Chill: 52°   Ceiling: 200
Heat Index: 52°   Visibility: 10mi
Dew Point: 51°   Wind: 8mph
Humidity: 97%   Direction: 50°NE
Pressure: 29.92"   Gusts: NA
Location:  31.2035°N, 85.4998°W
Report Text: KDHN 221753Z 05007KT 10SM OVC002 11/11 A2992 RMK AO2 RAE46 SLP129 P0001 60005 T01110106 10111 20094 58023
Loading
Personal Weather Stations






























Interactive Weather Map New forecast layout! Learn more

10-Day Weather Forecast

Advertisements
Track Severe Weather on mobile